Time;durP1;ratioP1;P1;durP2;ratioP2;P2;SDS_P1;SDS_P2;PMS_P1;PMS_P2;Temp;Humidity;BMP_temperature;BMP_pressure;BME280_temperature;BME280_humidity;BME280_pressure;Samples;Min_cycle;Max_cycle;Signal;HPM_P1;HPM_P2
2023/07/11 00:02:26;;;;;;;2.25;0.90;;;24.50;1.00;;;;;;5135097;27;20425;-56
2023/07/11 00:04:53;;;;;;;2.10;0.90;;;24.40;1.00;;;;;;5136183;27;20430;-59
2023/07/11 00:07:21;;;;;;;1.50;0.80;;;24.30;1.00;;;;;;5135804;27;20422;-57
2023/07/11 00:09:48;;;;;;;1.40;0.90;;;24.30;1.00;;;;;;5135803;27;20422;-57
2023/07/11 00:12:16;;;;;;;1.50;0.93;;;24.20;1.00;;;;;;5135030;27;20475;-57
2023/07/11 00:14:45;;;;;;;2.90;1.00;;;24.10;1.00;;;;;;5135360;27;20917;-55
2023/07/11 00:17:12;;;;;;;2.20;1.00;;;24.20;1.00;;;;;;5135752;27;20421;-57
2023/07/11 00:19:50;;;;;;;1.30;0.90;;;24.20;1.00;;;;;;5135291;27;20437;-56
2023/07/11 00:22:17;;;;;;;2.10;0.90;;;24.20;1.00;;;;;;5135133;28;20425;-57
2023/07/11 00:24:45;;;;;;;2.80;1.00;;;24.10;1.00;;;;;;5135804;28;20426;-56
2023/07/11 00:27:13;;;;;;;2.80;1.00;;;24.10;1.00;;;;;;5135864;28;20847;-57
2023/07/11 00:29:40;;;;;;;2.15;1.05;;;24.10;1.00;;;;;;5135531;28;20776;-57
2023/07/11 00:32:09;;;;;;;1.70;0.90;;;24.10;1.00;;;;;;5135691;28;20429;-58
2023/07/11 00:34:36;;;;;;;2.20;1.00;;;24.10;1.00;;;;;;5135751;28;20425;-55
2023/07/11 00:37:04;;;;;;;1.88;1.00;;;24.00;1.00;;;;;;5136090;28;20764;-57
2023/07/11 00:39:34;;;;;;;2.78;1.10;;;24.00;1.00;;;;;;5135710;28;20431;-56
2023/07/11 00:42:01;;;;;;;2.00;1.10;;;24.00;1.00;;;;;;5135715;27;20711;-57
2023/07/11 00:44:28;;;;;;;2.05;1.08;;;23.90;1.00;;;;;;5134218;28;20414;-57
2023/07/11 00:46:55;;;;;;;2.10;1.10;;;23.90;1.00;;;;;;5133857;28;20427;-56
2023/07/11 00:49:24;;;;;;;1.67;1.10;;;23.90;1.00;;;;;;5133395;28;20860;-57
2023/07/11 00:51:56;;;;;;;2.10;1.08;;;23.90;1.00;;;;;;5133483;28;20426;-56
2023/07/11 00:54:32;;;;;;;2.83;1.00;;;23.90;1.00;;;;;;5133932;28;20465;-57
2023/07/11 00:57:02;;;;;;;2.70;1.20;;;23.90;1.00;;;;;;5133347;28;20768;-57
2023/07/11 00:59:30;;;;;;;1.83;1.20;;;24.00;1.00;;;;;;5134444;28;20426;-57
2023/07/11 01:02:03;;;;;;;1.73;1.10;;;23.90;1.00;;;;;;5133326;28;20426;-57
2023/07/11 01:04:31;;;;;;;2.03;1.30;;;23.90;1.00;;;;;;5134124;28;20425;-58
2023/07/11 01:06:58;;;;;;;3.92;1.20;;;23.90;1.00;;;;;;5134640;28;20422;-56
2023/07/11 01:09:26;;;;;;;1.73;1.20;;;23.80;1.00;;;;;;5134906;28;20872;-54
2023/07/11 01:11:56;;;;;;;2.60;1.10;;;23.80;1.00;;;;;;5134821;28;20461;-57
2023/07/11 01:14:24;;;;;;;1.58;1.30;;;23.80;1.00;;;;;;5135237;28;20420;-57
2023/07/11 01:16:52;;;;;;;2.40;1.10;;;23.80;1.00;;;;;;5135597;28;20490;-55
2023/07/11 01:19:20;;;;;;;2.03;1.10;;;23.80;1.00;;;;;;5137798;27;20431;-56
2023/07/11 01:21:49;;;;;;;2.00;1.30;;;23.80;1.00;;;;;;5138298;27;20423;-57
2023/07/11 01:24:16;;;;;;;2.20;1.10;;;23.80;1.00;;;;;;5138791;27;20449;-55
2023/07/11 01:26:44;;;;;;;2.00;1.20;;;23.80;1.00;;;;;;5139569;27;20505;-58
2023/07/11 01:29:11;;;;;;;2.63;1.20;;;23.70;1.00;;;;;;5139057;27;20448;-56
2023/07/11 01:31:38;;;;;;;2.55;1.40;;;23.70;1.00;;;;;;5138928;27;20429;-57
2023/07/11 01:34:07;;;;;;;3.20;1.35;;;23.70;1.00;;;;;;5138973;27;20767;-56
2023/07/11 01:36:35;;;;;;;3.60;1.70;;;23.70;1.00;;;;;;5138859;27;20433;-54
2023/07/11 01:39:06;;;;;;;3.63;1.80;;;23.70;1.00;;;;;;5138950;27;20430;-59
2023/07/11 01:41:33;;;;;;;5.18;1.90;;;23.70;1.00;;;;;;5138516;27;20418;-56
2023/07/11 01:44:00;;;;;;;3.25;2.05;;;23.60;1.00;;;;;;5138128;27;20423;-55
2023/07/11 01:46:28;;;;;;;4.82;2.20;;;23.60;1.00;;;;;;5138878;27;20426;-58
2023/07/11 01:48:55;;;;;;;3.60;2.10;;;23.50;1.00;;;;;;5138663;27;20507;-58
2023/07/11 01:51:22;;;;;;;2.65;1.65;;;23.50;1.00;;;;;;5138449;27;20868;-57
2023/07/11 01:53:49;;;;;;;8.75;2.70;;;23.50;1.00;;;;;;5138451;27;20434;-56
2023/07/11 01:56:18;;;;;;;5.60;3.80;;;23.40;1.00;;;;;;5138317;27;20422;-55
2023/07/11 01:58:44;;;;;;;5.00;3.00;;;23.30;1.00;;;;;;5138488;27;20483;-56
2023/07/11 02:01:11;;;;;;;5.20;2.78;;;23.30;1.00;;;;;;5138581;27;20422;-56
2023/07/11 02:03:38;;;;;;;7.20;2.90;;;23.40;1.00;;;;;;5138260;27;20434;-56
2023/07/11 02:06:05;;;;;;;4.25;2.20;;;23.40;1.00;;;;;;5138190;27;20760;-57
2023/07/11 02:08:32;;;;;;;3.45;2.00;;;23.30;1.00;;;;;;5137862;27;20418;-54
2023/07/11 02:10:59;;;;;;;4.93;1.88;;;23.40;1.00;;;;;;5138184;27;20535;-56
2023/07/11 02:13:28;;;;;;;3.15;1.30;;;23.40;1.00;;;;;;5137942;27;20423;-58
2023/07/11 02:15:55;;;;;;;3.40;1.45;;;23.40;1.00;;;;;;5137691;27;20422;-56
2023/07/11 02:18:22;;;;;;;1.80;1.10;;;23.40;1.00;;;;;;5137518;27;20795;-56
2023/07/11 02:20:49;;;;;;;3.80;1.10;;;23.30;1.00;;;;;;5137953;27;20434;-56
2023/07/11 02:23:17;;;;;;;2.70;1.10;;;23.20;1.00;;;;;;5138086;27;20415;-57
2023/07/11 02:25:44;;;;;;;1.90;1.10;;;23.20;1.00;;;;;;5138023;27;20429;-55
2023/07/11 02:28:11;;;;;;;4.30;1.10;;;23.30;1.00;;;;;;5137694;27;20423;-52
2023/07/11 02:30:40;;;;;;;2.40;1.30;;;23.30;1.00;;;;;;5137626;27;20510;-57
2023/07/11 02:33:07;;;;;;;1.73;1.10;;;23.20;1.00;;;;;;5136925;27;20848;-58
2023/07/11 02:35:34;;;;;;;2.10;0.93;;;23.20;1.00;;;;;;5136901;27;20411;-57
2023/07/11 02:38:01;;;;;;;2.05;1.00;;;23.20;1.00;;;;;;5137146;27;20479;-58
2023/07/11 02:40:28;;;;;;;2.60;1.10;;;23.00;1.00;;;;;;5136866;27;20434;-57
2023/07/11 02:42:55;;;;;;;2.90;1.40;;;22.80;1.00;;;;;;5137194;27;20418;-56
2023/07/11 02:45:22;;;;;;;3.50;1.50;;;22.70;1.00;;;;;;5137191;27;20838;-56
2023/07/11 02:47:51;;;;;;;1.70;1.20;;;22.60;1.00;;;;;;5136888;27;20838;-56
2023/07/11 02:50:18;;;;;;;2.72;1.20;;;22.70;1.00;;;;;;5137256;27;20395;-56
2023/07/11 02:52:47;;;;;;;2.60;1.20;;;22.90;1.00;;;;;;5137311;27;20428;-54
2023/07/11 02:55:14;;;;;;;3.42;1.33;;;22.90;1.00;;;;;;5137775;27;20426;-58
2023/07/11 02:57:42;;;;;;;3.08;1.50;;;23.10;1.00;;;;;;5137020;27;20443;-57
2023/07/11 03:00:11;;;;;;;2.70;1.50;;;23.20;1.00;;;;;;5136934;27;20430;-55
2023/07/11 03:02:38;;;;;;;3.90;1.42;;;23.30;1.00;;;;;;5136630;27;20422;-55
2023/07/11 03:05:07;;;;;;;2.78;2.28;;;23.30;1.00;;;;;;5137088;27;20430;-55
2023/07/11 03:07:36;;;;;;;5.38;2.30;;;23.20;1.00;;;;;;5136347;27;20898;-52
2023/07/11 03:10:03;;;;;;;3.53;2.13;;;23.10;1.00;;;;;;5137005;27;20426;-57
2023/07/11 03:12:31;;;;;;;4.50;2.22;;;22.90;1.00;;;;;;5136884;27;20865;-58
2023/07/11 03:14:58;;;;;;;4.00;2.10;;;22.80;1.00;;;;;;5137050;27;20410;-57
2023/07/11 03:17:25;;;;;;;5.60;2.50;;;22.70;1.00;;;;;;5136717;27;20414;-58
2023/07/11 03:19:52;;;;;;;3.65;2.78;;;22.60;1.00;;;;;;5136609;27;20426;-57
2023/07/11 03:22:20;;;;;;;3.67;2.00;;;22.50;1.00;;;;;;5136541;27;20433;-57
2023/07/11 03:24:47;;;;;;;5.40;2.37;;;22.60;1.00;;;;;;5136763;27;20734;-55
2023/07/11 03:27:14;;;;;;;4.35;2.65;;;22.60;1.00;;;;;;5136271;27;20788;-55
2023/07/11 03:29:41;;;;;;;4.30;2.38;;;22.60;1.00;;;;;;5136170;27;20783;-53
2023/07/11 03:32:10;;;;;;;4.88;2.60;;;22.60;1.00;;;;;;5136389;27;20426;-55
2023/07/11 03:34:37;;;;;;;4.27;2.70;;;22.60;1.00;;;;;;5137025;27;20438;-57
2023/07/11 03:37:05;;;;;;;4.20;2.60;;;22.60;1.00;;;;;;5136271;27;20868;-54
2023/07/11 03:39:33;;;;;;;3.83;1.95;;;22.70;1.00;;;;;;5136348;27;20864;-52
2023/07/11 03:42:00;;;;;;;2.75;2.03;;;22.60;1.00;;;;;;5134882;27;20410;-54
2023/07/11 03:44:28;;;;;;;5.32;2.10;;;22.60;1.00;;;;;;5134445;27;20468;-61
2023/07/11 03:46:55;;;;;;;3.40;1.60;;;22.70;1.00;;;;;;5134921;27;20479;-55
2023/07/11 03:49:22;;;;;;;3.47;1.90;;;22.80;1.00;;;;;;5134002;27;20761;-56
2023/07/11 03:51:49;;;;;;;4.00;1.77;;;22.80;1.00;;;;;;5134098;27;20438;-55
2023/07/11 03:54:16;;;;;;;3.50;1.70;;;22.90;1.00;;;;;;5134628;27;20423;-55
2023/07/11 03:56:45;;;;;;;4.20;2.20;;;22.90;1.00;;;;;;5135126;27;20410;-56
2023/07/11 03:59:12;;;;;;;5.40;3.00;;;23.10;1.00;;;;;;5134998;27;20422;-54
2023/07/11 04:01:39;;;;;;;3.58;2.13;;;23.10;1.00;;;;;;5136139;27;20453;-54
2023/07/11 04:04:06;;;;;;;3.40;1.33;;;23.10;1.00;;;;;;5135435;27;20418;-55
2023/07/11 04:06:33;;;;;;;2.80;1.70;;;23.10;1.00;;;;;;5135999;27;20423;-55
2023/07/11 04:09:00;;;;;;;2.90;1.40;;;23.10;1.00;;;;;;5135753;27;20864;-56
2023/07/11 04:11:27;;;;;;;2.80;1.30;;;23.10;1.00;;;;;;5135824;27;20423;-50
2023/07/11 04:13:55;;;;;;;2.63;1.20;;;23.10;1.00;;;;;;5136170;27;20488;-53
2023/07/11 04:16:23;;;;;;;1.50;1.10;;;23.10;1.00;;;;;;5136264;27;20633;-54
2023/07/11 04:18:50;;;;;;;1.50;1.05;;;23.00;1.00;;;;;;5135586;27;20708;-57
2023/07/11 04:21:17;;;;;;;3.50;1.30;;;22.90;1.00;;;;;;5134502;27;20442;-51
2023/07/11 04:23:45;;;;;;;3.60;1.20;;;22.80;1.00;;;;;;5135327;27;20745;-50
2023/07/11 04:26:12;;;;;;;2.30;1.13;;;22.70;1.00;;;;;;5134736;28;20412;-55
2023/07/11 04:28:39;;;;;;;1.80;1.05;;;22.70;1.00;;;;;;5134398;28;20479;-52
2023/07/11 04:31:07;;;;;;;2.40;1.20;;;22.60;1.00;;;;;;5133447;28;20418;-55
2023/07/11 04:33:34;;;;;;;2.60;1.10;;;22.50;1.00;;;;;;5133571;28;20787;-54
2023/07/11 04:36:10;;;;;;;2.15;1.10;;;22.50;1.00;;;;;;5133808;28;20410;-56
2023/07/11 04:38:37;;;;;;;1.50;1.02;;;22.40;28.10;;;;;;5134297;28;20463;-54
2023/07/11 04:41:05;;;;;;;1.40;1.00;;;22.40;22.60;;;;;;5134397;28;20441;-59
2023/07/11 04:43:34;;;;;;;1.67;1.10;;;22.40;57.90;;;;;;5133181;28;20430;-56
2023/07/11 04:46:02;;;;;;;1.50;1.17;;;22.40;80.40;;;;;;5132637;28;20422;-55
2023/07/11 04:48:31;;;;;;;2.20;1.10;;;22.40;96.30;;;;;;5132229;28;20596;-53
2023/07/11 04:50:59;;;;;;;2.33;1.10;;;22.30;99.90;;;;;;5133330;28;20437;-54
2023/07/11 04:53:27;;;;;;;1.65;1.10;;;22.40;99.50;;;;;;5134777;27;20825;-56
2023/07/11 04:55:58;;;;;;;2.50;1.20;;;22.40;99.90;;;;;;5137726;27;20430;-53
2023/07/11 04:58:25;;;;;;;2.85;1.50;;;22.40;99.90;;;;;;5138157;27;20418;-53
2023/07/11 05:00:59;;;;;;;2.20;1.30;;;22.30;99.90;;;;;;5136804;27;20443;-56
2023/07/11 05:03:26;;;;;;;3.10;1.20;;;22.30;99.90;;;;;;5138948;27;20833;-56
2023/07/11 05:05:54;;;;;;;3.42;1.30;;;22.30;99.90;;;;;;5139307;27;20429;-53
2023/07/11 05:08:21;;;;;;;2.53;1.30;;;22.30;99.90;;;;;;5133035;27;20674;-52
2023/07/11 05:10:52;;;;;;;1.80;1.20;;;22.30;99.90;;;;;;5135416;27;20414;-49
2023/07/11 05:13:19;;;;;;;1.83;1.20;;;22.30;99.90;;;;;;5139138;27;20560;-52
2023/07/11 05:15:46;;;;;;;3.08;1.30;;;22.30;99.90;;;;;;5138760;27;20426;-54
2023/07/11 05:18:14;;;;;;;2.00;1.40;;;22.30;99.90;;;;;;5138230;27;20429;-57
2023/07/11 05:20:41;;;;;;;4.80;1.40;;;22.30;99.90;;;;;;5138111;27;20430;-55
2023/07/11 05:23:09;;;;;;;2.50;1.30;;;22.40;99.90;;;;;;5137359;27;20465;-55
2023/07/11 05:25:38;;;;;;;2.75;1.67;;;22.50;99.90;;;;;;5137192;27;20422;-50
2023/07/11 05:28:05;;;;;;;1.90;1.20;;;22.70;59.40;;;;;;5136551;27;20470;-53
2023/07/11 05:30:32;;;;;;;3.28;1.70;;;22.70;21.30;;;;;;5134562;27;20418;-55
2023/07/11 05:32:59;;;;;;;2.70;1.40;;;22.80;1.00;;;;;;5134464;27;20418;-53
2023/07/11 05:35:26;;;;;;;3.50;1.30;;;22.80;9.30;;;;;;5135474;27;20757;-49
2023/07/11 05:37:53;;;;;;;2.73;1.20;;;22.90;1.00;;;;;;5134737;27;20429;-53
2023/07/11 05:40:22;;;;;;;3.33;1.45;;;22.90;1.00;;;;;;5133305;27;20430;-55
2023/07/11 05:42:49;;;;;;;1.67;1.20;;;23.00;1.00;;;;;;5133629;27;20752;-55
2023/07/11 05:45:16;;;;;;;3.00;1.23;;;23.00;1.00;;;;;;5134502;27;20418;-54
2023/07/11 05:47:43;;;;;;;1.70;1.00;;;23.10;1.00;;;;;;5132097;27;20709;-53
2023/07/11 05:50:10;;;;;;;1.50;1.00;;;23.20;1.00;;;;;;5134598;27;20418;-55
2023/07/11 05:52:37;;;;;;;1.90;1.05;;;23.30;1.00;;;;;;5136152;27;20426;-55
2023/07/11 05:55:05;;;;;;;1.70;1.10;;;23.40;1.00;;;;;;5136950;27;20483;-53
2023/07/11 05:57:33;;;;;;;2.15;1.00;;;23.50;1.00;;;;;;5133586;27;20483;-55
2023/07/11 06:00:00;;;;;;;2.30;1.20;;;23.60;1.00;;;;;;5132987;27;20418;-55
2023/07/11 06:02:27;;;;;;;2.00;1.10;;;23.70;1.00;;;;;;5133522;27;20451;-55
2023/07/11 06:04:54;;;;;;;2.50;1.00;;;23.80;1.00;;;;;;5135393;27;20433;-55
2023/07/11 06:07:22;;;;;;;1.42;1.02;;;23.80;1.00;;;;;;5137121;27;20445;-53
2023/07/11 06:09:50;;;;;;;1.70;1.20;;;23.90;1.00;;;;;;5130983;27;20730;-55
2023/07/11 06:12:17;;;;;;;1.48;1.02;;;23.90;1.00;;;;;;5131646;27;20469;-53
2023/07/11 06:14:45;;;;;;;1.92;1.10;;;24.00;1.00;;;;;;5133045;27;20894;-55
2023/07/11 06:17:12;;;;;;;1.70;1.20;;;24.00;1.00;;;;;;5133953;27;20822;-56
2023/07/11 06:19:39;;;;;;;1.80;1.20;;;24.20;1.00;;;;;;5134534;27;20429;-57
2023/07/11 06:22:06;;;;;;;1.80;1.30;;;24.20;1.00;;;;;;5135143;27;20722;-56
2023/07/11 06:24:34;;;;;;;2.20;1.10;;;24.30;1.00;;;;;;5134807;27;20429;-55
2023/07/11 06:27:01;;;;;;;2.50;1.20;;;24.40;1.00;;;;;;5133700;27;20670;-57
2023/07/11 06:29:30;;;;;;;2.20;1.30;;;24.60;1.00;;;;;;5134087;27;20453;-57
2023/07/11 06:31:58;;;;;;;2.13;1.15;;;24.50;1.00;;;;;;5133566;27;20425;-57
2023/07/11 06:34:25;;;;;;;1.80;1.17;;;24.60;1.00;;;;;;5129652;27;20427;-58
2023/07/11 06:36:52;;;;;;;2.60;1.30;;;24.50;1.00;;;;;;5130623;27;20917;-56
2023/07/11 06:39:19;;;;;;;1.55;1.10;;;24.60;1.00;;;;;;5133371;27;20532;-58
2023/07/11 06:41:46;;;;;;;2.85;1.10;;;24.60;1.00;;;;;;5134274;27;20422;-57
2023/07/11 06:44:13;;;;;;;2.63;1.20;;;24.80;1.00;;;;;;5134455;27;20725;-56
2023/07/11 06:46:40;;;;;;;2.50;1.10;;;24.90;1.00;;;;;;5135848;27;20486;-55
2023/07/11 06:49:09;;;;;;;1.40;1.00;;;25.00;1.00;;;;;;5122794;27;20424;-57
2023/07/11 06:51:36;;;;;;;1.80;1.10;;;25.20;1.00;;;;;;5114764;28;20420;-57
2023/07/11 06:54:03;;;;;;;2.33;1.30;;;25.30;1.00;;;;;;5114234;28;20416;-56
2023/07/11 06:56:32;;;;;;;2.70;1.00;;;25.40;1.00;;;;;;5113718;28;20436;-53
2023/07/11 06:59:00;;;;;;;2.20;1.17;;;25.50;1.00;;;;;;5120797;27;20454;-52
2023/07/11 07:01:27;;;;;;;1.65;1.30;;;25.50;1.00;;;;;;5116767;27;20740;-55
2023/07/11 07:03:54;;;;;;;2.00;1.00;;;25.50;1.00;;;;;;5129859;27;20450;-53
2023/07/11 07:06:22;;;;;;;2.72;1.30;;;25.50;1.00;;;;;;5132928;27;20425;-55
2023/07/11 07:08:49;;;;;;;2.28;1.13;;;25.60;1.00;;;;;;5129807;27;20440;-52
2023/07/11 07:11:16;;;;;;;2.50;1.20;;;25.80;1.00;;;;;;5131177;27;20439;-55
2023/07/11 07:13:43;;;;;;;2.70;1.40;;;25.90;1.00;;;;;;5134820;27;20427;-54
2023/07/11 07:16:11;;;;;;;1.88;1.20;;;26.00;1.00;;;;;;5127781;27;20619;-54
2023/07/11 07:18:40;;;;;;;1.58;1.10;;;26.10;1.00;;;;;;5112514;28;20424;-53
2023/07/11 07:21:09;;;;;;;2.33;1.20;;;26.20;1.00;;;;;;5100774;28;20532;-56
2023/07/11 07:23:38;;;;;;;2.00;1.20;;;26.20;1.00;;;;;;5109582;28;20416;-54
2023/07/11 07:26:06;;;;;;;1.50;1.10;;;26.20;1.00;;;;;;5114173;28;20424;-54
2023/07/11 07:28:35;;;;;;;3.38;1.10;;;26.40;1.00;;;;;;5114146;28;20889;-53
2023/07/11 07:31:05;;;;;;;2.42;1.10;;;26.50;1.00;;;;;;5114498;28;20456;-54
2023/07/11 07:33:33;;;;;;;1.85;1.10;;;26.70;1.00;;;;;;5119883;27;20546;-52
2023/07/11 07:36:02;;;;;;;1.50;1.10;;;26.90;1.00;;;;;;5131093;27;20422;-54
2023/07/11 07:38:29;;;;;;;2.00;1.20;;;27.00;1.00;;;;;;5132218;27;20425;-56
2023/07/11 07:41:00;;;;;;;2.25;1.10;;;27.10;1.00;;;;;;5130859;27;20422;-56
2023/07/11 07:43:28;;;;;;;1.70;1.10;;;27.10;1.00;;;;;;5130629;27;20426;-54
2023/07/11 07:45:56;;;;;;;1.40;1.10;;;27.10;1.00;;;;;;5128668;27;20429;-56
2023/07/11 07:48:24;;;;;;;1.80;1.10;;;27.30;1.00;;;;;;5130060;27;20430;-55
2023/07/11 07:50:51;;;;;;;1.40;1.00;;;27.50;1.00;;;;;;5127620;27;20422;-56
2023/07/11 07:53:18;;;;;;;4.22;1.15;;;27.60;1.00;;;;;;5129123;27;20901;-57
2023/07/11 07:55:46;;;;;;;2.38;1.20;;;27.60;1.00;;;;;;5130969;27;20430;-56
2023/07/11 07:58:15;;;;;;;1.83;1.05;;;27.50;1.00;;;;;;5131238;27;20425;-57
2023/07/11 08:00:42;;;;;;;2.30;1.20;;;27.70;1.00;;;;;;5114591;27;20467;-55
2023/07/11 08:03:09;;;;;;;2.30;1.00;;;27.90;1.00;;;;;;5113922;27;20432;-55
2023/07/11 08:05:37;;;;;;;1.60;1.00;;;28.10;1.00;;;;;;5120362;27;20516;-55
2023/07/11 08:08:04;;;;;;;1.30;1.00;;;28.30;1.00;;;;;;5111310;27;20436;-55
2023/07/11 08:10:33;;;;;;;1.53;1.00;;;28.30;1.00;;;;;;5110494;28;20428;-52
2023/07/11 08:13:00;;;;;;;1.60;1.20;;;28.40;1.00;;;;;;5110673;28;20447;-57
2023/07/11 08:15:29;;;;;;;1.55;1.00;;;28.50;1.00;;;;;;5122114;27;20447;-53
2023/07/11 08:17:56;;;;;;;2.20;1.30;;;28.40;1.00;;;;;;5114317;27;20429;-57
2023/07/11 08:20:23;;;;;;;1.85;1.10;;;28.50;1.00;;;;;;5120192;27;20505;-55
2023/07/11 08:22:50;;;;;;;2.20;1.10;;;28.50;1.00;;;;;;5126905;27;20434;-54
2023/07/11 08:25:17;;;;;;;1.40;1.10;;;28.40;1.00;;;;;;5127817;28;20921;-55
2023/07/11 08:27:44;;;;;;;1.40;1.30;;;28.50;1.00;;;;;;5132175;27;20717;-56
2023/07/11 08:30:11;;;;;;;2.10;1.20;;;28.60;1.00;;;;;;5131842;28;20493;-54
2023/07/11 08:32:40;;;;;;;1.80;1.10;;;28.70;1.00;;;;;;5131215;28;20421;-53
2023/07/11 08:35:08;;;;;;;1.40;1.20;;;28.90;1.00;;;;;;5130446;28;20434;-55
2023/07/11 08:37:35;;;;;;;2.03;1.20;;;29.10;1.00;;;;;;5132931;28;20445;-56
2023/07/11 08:40:02;;;;;;;1.55;1.05;;;29.20;1.00;;;;;;5133604;27;20430;-54
2023/07/11 08:42:34;;;;;;;1.90;1.02;;;29.40;1.00;;;;;;5130059;28;20427;-52
2023/07/11 08:45:22;;;;;;;1.98;1.30;;;29.50;1.00;;;;;;5130471;28;20421;-55
2023/07/11 08:47:57;;;;;;;1.58;1.10;;;29.60;1.00;;;;;;5131956;28;20418;-54
2023/07/11 08:50:30;;;;;;;2.30;1.20;;;29.50;1.00;;;;;;5131342;28;20450;-54
2023/07/11 08:53:06;;;;;;;1.40;1.00;;;29.60;1.00;;;;;;5132121;28;20429;-56
2023/07/11 08:55:37;;;;;;;1.60;1.17;;;29.80;1.00;;;;;;5130851;28;20484;-57
2023/07/11 08:58:11;;;;;;;1.40;1.20;;;29.90;1.00;;;;;;5130164;28;20521;-57
2023/07/11 09:00:40;;;;;;;1.90;1.10;;;30.00;1.00;;;;;;5130049;28;20410;-54
2023/07/11 09:03:22;;;;;;;3.03;1.20;;;30.10;1.00;;;;;;5132286;28;20474;-55
2023/07/11 09:05:54;;;;;;;1.75;1.15;;;30.20;1.00;;;;;;5132633;28;20410;-54
2023/07/11 09:08:22;;;;;;;4.80;1.42;;;30.40;1.00;;;;;;5131660;28;20418;-53
2023/07/11 09:11:05;;;;;;;1.75;1.30;;;30.60;1.00;;;;;;5132389;28;20429;-55
2023/07/11 09:14:03;;;;;;;2.27;1.30;;;30.70;1.00;;;;;;5132247;28;20806;-54
2023/07/11 09:16:36;;;;;;;1.73;1.30;;;30.90;1.00;;;;;;5126466;28;20430;-55
2023/07/11 09:19:24;;;;;;;2.05;1.20;;;31.00;1.00;;;;;;5132228;28;20483;-55
2023/07/11 09:21:57;;;;;;;1.65;1.30;;;30.70;1.00;;;;;;5130865;28;20434;-55
2023/07/11 09:24:34;;;;;;;1.90;1.20;;;30.60;1.00;;;;;;5130671;27;20516;-55
2023/07/11 09:27:09;;;;;;;1.55;1.25;;;30.80;1.00;;;;;;5130279;28;20414;-56
2023/07/11 09:29:36;;;;;;;2.50;1.40;;;30.80;1.00;;;;;;5131643;28;20407;-55
2023/07/11 09:32:08;;;;;;;2.30;1.40;;;30.50;1.00;;;;;;5132312;28;20430;-56
2023/07/11 09:34:40;;;;;;;2.70;1.30;;;30.60;1.00;;;;;;5132237;28;20430;-57
2023/07/11 09:37:17;;;;;;;1.90;1.25;;;30.70;1.00;;;;;;5107191;27;20870;-57
2023/07/11 09:39:49;;;;;;;2.25;1.40;;;30.80;1.00;;;;;;5133904;27;20457;-56
2023/07/11 09:42:23;;;;;;;1.85;1.15;;;30.80;1.00;;;;;;5128928;27;20423;-57
2023/07/11 09:44:59;;;;;;;1.50;1.30;;;31.00;1.00;;;;;;5115177;28;20427;-57
2023/07/11 09:47:30;;;;;;;2.40;1.37;;;31.10;1.00;;;;;;5128055;27;20465;-57
2023/07/11 09:50:00;;;;;;;2.03;1.60;;;31.30;1.00;;;;;;5133584;27;20862;-57
2023/07/11 09:52:29;;;;;;;2.17;1.35;;;31.40;1.00;;;;;;5132607;27;20736;-58
2023/07/11 09:54:58;;;;;;;2.25;1.20;;;31.40;1.00;;;;;;5132811;27;20793;-57
2023/07/11 09:57:25;;;;;;;2.40;1.48;;;31.50;1.00;;;;;;5112416;28;21015;-57
2023/07/11 10:00:00;;;;;;;1.40;1.30;;;31.60;1.00;;;;;;5121628;27;20426;-58
2023/07/11 10:02:28;;;;;;;1.58;1.30;;;31.70;1.00;;;;;;5134852;27;20751;-58
2023/07/11 10:04:58;;;;;;;2.60;1.27;;;32.00;1.00;;;;;;5134663;27;20461;-58
2023/07/11 10:07:30;;;;;;;1.60;1.20;;;32.10;1.00;;;;;;5134642;27;20422;-58
2023/07/11 10:10:05;;;;;;;1.90;1.30;;;32.20;1.00;;;;;;5122892;27;20798;-57
2023/07/11 10:12:34;;;;;;;2.00;1.40;;;32.10;1.00;;;;;;5133577;27;20703;-57
2023/07/11 10:15:05;;;;;;;1.50;1.20;;;32.40;1.00;;;;;;5135766;27;20859;-58
2023/07/11 10:17:34;;;;;;;1.40;1.10;;;32.80;1.00;;;;;;5134435;27;20487;-57
2023/07/11 10:20:06;;;;;;;1.60;1.20;;;32.60;1.00;;;;;;5133960;27;20414;-58
2023/07/11 10:22:36;;;;;;;1.73;1.20;;;32.60;1.00;;;;;;5134047;27;20427;-57
2023/07/11 10:25:17;;;;;;;1.80;1.20;;;32.60;1.00;;;;;;5133057;27;20874;-58
2023/07/11 10:27:51;;;;;;;1.60;1.30;;;32.90;1.00;;;;;;5130147;27;20850;-58
2023/07/11 10:30:25;;;;;;;2.60;1.40;;;33.10;1.00;;;;;;5115853;27;20428;-58
2023/07/11 10:32:57;;;;;;;1.50;1.40;;;33.40;1.00;;;;;;5112171;28;20428;-58
2023/07/11 10:35:27;;;;;;;1.70;1.30;;;33.50;1.00;;;;;;5113719;28;20435;-57
2023/07/11 10:37:58;;;;;;;1.88;1.10;;;33.70;1.00;;;;;;5104432;28;20720;-57
2023/07/11 10:40:28;;;;;;;2.25;1.40;;;33.90;1.00;;;;;;5114362;28;20423;-58
2023/07/11 10:43:04;;;;;;;2.60;1.20;;;34.00;1.00;;;;;;5114584;28;20432;-61
2023/07/11 10:45:39;;;;;;;1.83;1.30;;;34.20;1.00;;;;;;5114857;28;20912;-58
2023/07/11 10:48:23;;;;;;;3.22;1.50;;;34.30;1.00;;;;;;5113417;28;20855;-57
2023/07/11 10:50:58;;;;;;;2.10;1.50;;;34.30;1.00;;;;;;5111185;28;20428;-58
2023/07/11 10:53:29;;;;;;;2.00;1.30;;;34.20;1.00;;;;;;5113616;28;20431;-55
2023/07/11 10:56:01;;;;;;;1.53;1.40;;;34.20;1.00;;;;;;5112824;28;20420;-58
2023/07/11 10:58:28;;;;;;;1.63;1.33;;;34.70;1.00;;;;;;5113722;28;20424;-57
2023/07/11 11:01:11;;;;;;;1.60;1.40;;;34.80;1.00;;;;;;5113144;28;20847;-58
2023/07/11 11:03:41;;;;;;;1.80;1.30;;;35.40;1.00;;;;;;5113251;28;20432;-58
2023/07/11 11:06:32;;;;;;;3.10;1.52;;;35.60;1.00;;;;;;5113127;28;20420;-58
2023/07/11 11:09:08;;;;;;;1.80;1.30;;;35.50;1.00;;;;;;5127202;27;20448;-58
2023/07/11 11:11:45;;;;;;;2.05;1.50;;;35.70;1.00;;;;;;5113261;28;20420;-58
2023/07/11 11:14:15;;;;;;;2.50;1.60;;;36.00;1.00;;;;;;5110632;28;20481;-58
2023/07/11 11:16:59;;;;;;;2.38;1.40;;;35.70;1.00;;;;;;5112491;28;20417;-58
2023/07/11 11:19:39;;;;;;;2.50;1.50;;;35.70;1.00;;;;;;5111619;28;20444;-58
2023/07/11 11:22:20;;;;;;;1.77;1.50;;;35.60;1.00;;;;;;5111858;28;20428;-56
2023/07/11 11:24:57;;;;;;;2.10;1.48;;;35.40;1.00;;;;;;5113858;27;20443;-58
2023/07/11 11:27:41;;;;;;;1.80;1.50;;;35.10;1.00;;;;;;5127974;27;20882;-54
2023/07/11 11:30:25;;;;;;;2.40;1.30;;;35.60;1.00;;;;;;5130379;27;20432;-55
2023/07/11 11:32:59;;;;;;;2.20;1.50;;;36.00;1.00;;;;;;5112839;28;20892;-56
2023/07/11 11:35:36;;;;;;;1.50;1.30;;;36.10;1.00;;;;;;5113011;28;20473;-56
2023/07/11 11:38:18;;;;;;;3.03;1.50;;;36.70;1.00;;;;;;5112615;28;20432;-56
2023/07/11 11:40:50;;;;;;;1.60;1.40;;;36.90;1.00;;;;;;5121867;27;20521;-56
2023/07/11 11:43:25;;;;;;;1.90;1.70;;;37.00;1.00;;;;;;5132688;27;20513;-54
2023/07/11 11:45:53;;;;;;;1.60;1.30;;;36.50;1.00;;;;;;5132306;27;20440;-57
2023/07/11 11:48:23;;;;;;;2.60;1.50;;;35.90;1.00;;;;;;5130283;27;20429;-56
2023/07/11 11:50:51;;;;;;;2.03;1.40;;;35.60;1.00;;;;;;5128383;27;20414;-56
2023/07/11 11:53:31;;;;;;;2.60;1.70;;;35.70;1.00;;;;;;5130644;27;20822;-56
2023/07/11 11:56:01;;;;;;;1.97;1.30;;;36.20;1.00;;;;;;5129138;27;20837;-56
2023/07/11 11:58:31;;;;;;;3.00;1.48;;;35.90;1.00;;;;;;5131923;27;20422;-56
2023/07/11 12:00:59;;;;;;;2.28;1.50;;;35.80;1.00;;;;;;5127848;27;20512;-55
2023/07/11 12:03:29;;;;;;;3.13;1.50;;;35.70;1.00;;;;;;5127645;27;20692;-56
2023/07/11 12:05:58;;;;;;;2.80;1.40;;;35.60;1.00;;;;;;5127720;27;20414;-56
2023/07/11 12:08:30;;;;;;;1.40;1.30;;;35.80;1.00;;;;;;5129657;27;20426;-56
2023/07/11 12:11:19;;;;;;;1.50;1.30;;;35.90;1.00;;;;;;5130524;27;20416;-56
2023/07/11 12:14:02;;;;;;;1.50;1.40;;;36.00;1.00;;;;;;5125791;27;20414;-57
2023/07/11 12:16:32;;;;;;;1.92;1.40;;;35.60;1.00;;;;;;5130009;27;20418;-56
2023/07/11 12:19:01;;;;;;;1.90;1.30;;;35.70;1.00;;;;;;5130714;27;20428;-55
2023/07/11 12:21:39;;;;;;;2.28;1.30;;;36.00;1.00;;;;;;5131981;27;20429;-55
2023/07/11 12:24:41;;;;;;;1.50;1.40;;;36.40;1.00;;;;;;5130958;27;20430;-56
2023/07/11 12:27:57;;;;;;;1.75;1.50;;;36.80;1.00;;;;;;5130401;27;20728;-53
2023/07/11 12:30:43;;;;;;;2.70;1.40;;;36.80;1.00;;;;;;5131538;28;20422;-55
2023/07/11 12:33:30;;;;;;;1.90;1.70;;;36.30;1.00;;;;;;5137368;27;20888;-56
2023/07/11 12:36:16;;;;;;;1.50;1.40;;;36.00;1.00;;;;;;5150645;27;20432;-57
2023/07/11 12:39:00;;;;;;;2.20;1.40;;;35.60;1.00;;;;;;5152497;27;20424;-57
2023/07/11 12:41:38;;;;;;;1.70;1.30;;;35.80;1.00;;;;;;5152644;27;20792;-58
2023/07/11 12:44:11;;;;;;;2.60;1.98;;;36.40;1.00;;;;;;5151450;27;20421;-58
2023/07/11 12:46:38;;;;;;;1.50;1.40;;;36.90;1.00;;;;;;5151152;27;20424;-56
2023/07/11 12:49:15;;;;;;;2.00;1.40;;;37.00;1.00;;;;;;5150753;27;20457;-58
2023/07/11 12:51:42;;;;;;;1.88;1.30;;;36.80;1.00;;;;;;5152699;27;20481;-56
2023/07/11 12:54:16;;;;;;;1.70;1.33;;;37.00;1.00;;;;;;5153056;27;20855;-58
2023/07/11 12:56:47;;;;;;;2.00;1.30;;;37.20;1.00;;;;;;5151942;27;20866;-58
2023/07/11 12:59:24;;;;;;;2.83;1.40;;;37.10;1.00;;;;;;5152024;27;20413;-57
2023/07/11 13:01:53;;;;;;;1.70;1.40;;;37.10;1.00;;;;;;5150478;27;20455;-57
2023/07/11 13:04:31;;;;;;;1.90;1.40;;;37.00;1.00;;;;;;5152990;27;20416;-58
2023/07/11 13:06:58;;;;;;;2.10;1.50;;;36.80;1.00;;;;;;5150767;27;20425;-58
2023/07/11 13:09:26;;;;;;;1.50;1.30;;;36.30;1.00;;;;;;5150581;27;20428;-58
2023/07/11 13:11:55;;;;;;;1.50;1.40;;;36.30;1.00;;;;;;5151820;27;20417;-57